Time;durP1;ratioP1;P1;durP2;ratioP2;P2;SDS_P1;SDS_P2;PMS_P1;PMS_P2;Temp;Humidity;BMP_temperature;BMP_pressure;BME280_temperature;BME280_humidity;BME280_pressure;Samples;Min_cycle;Max_cycle;Signal;HPM_P1;HPM_P2
2023/04/24 00:02:03;;;;;;;;;11.75;11.75;;;;;13.45;70.39;100954.53;146620;577;46014;-81
2023/04/24 00:05:09;;;;;;;;;16.75;12.50;;;;;13.44;70.49;100957.97;146618;639;46915;-80
2023/04/24 00:08:08;;;;;;;;;14.25;13.00;;;;;13.40;71.00;100951.75;146621;565;46012;-89
2023/04/24 00:11:14;;;;;;;;;;;;;;;;;;;;;
2023/04/24 00:14:09;;;;;;;;;12.50;12.25;;;;;13.38;70.92;100953.38;146618;571;46017;-83
2023/04/24 00:17:11;;;;;;;;;17.75;14.50;;;;;13.40;71.00;100951.75;146623;569;46010;-83
2023/04/24 00:20:10;;;;;;;;;12.00;12.00;;;;;13.43;71.13;100953.59;146618;590;46016;-85
2023/04/24 00:23:08;;;;;;;;;13.50;11.50;;;;;13.44;70.65;100941.47;146623;627;46020;-90
2023/04/24 00:26:03;;;;;;;;;12.00;11.50;;;;;13.45;70.52;100941.50;146618;621;46919;-86
2023/04/24 00:29:02;;;;;;;;;9.75;8.50;;;;;13.48;70.17;100949.47;146622;672;45021;-85
2023/04/24 00:32:15;;;;;;;;;15.00;10.00;;;;;13.50;69.46;100944.34;146620;643;46016;-87
2023/04/24 00:35:14;;;;;;;;;8.75;8.50;;;;;13.49;69.72;100940.84;146621;587;46012;-86
2023/04/24 00:38:09;;;;;;;;;11.50;11.50;;;;;13.49;69.78;100937.31;146620;572;46014;-85
2023/04/24 00:41:04;;;;;;;;;12.50;10.50;;;;;13.48;69.83;100943.38;146624;578;46010;-83
2023/04/24 00:44:11;;;;;;;;;11.50;10.00;;;;;13.43;70.25;100939.66;146621;677;45016;-85
2023/04/24 00:47:38;;;;;;;;;12.50;10.00;;;;;13.38;69.79;100947.28;146624;710;45020;-84
2023/04/24 00:51:03;;;;;;;;;10.25;10.25;;;;;13.32;70.07;100949.63;146620;571;45038;-86
2023/04/24 00:54:01;;;;;;;;;9.50;9.25;;;;;13.26;70.92;100950.25;146625;563;45020;-86
2023/04/24 00:57:01;;;;;;;;;9.25;9.00;;;;;13.20;71.49;100952.53;146624;580;45016;-85
2023/04/24 01:00:03;;;;;;;;;13.50;11.50;;;;;13.14;71.01;100957.47;146622;599;46021;-85
2023/04/24 01:03:06;;;;;;;;;15.25;13.50;;;;;13.10;71.76;100952.97;146621;743;45033;-86
2023/04/24 01:06:02;;;;;;;;;11.25;9.75;;;;;13.08;71.53;100963.34;146622;573;46020;-82
2023/04/24 01:08:55;;;;;;;;;14.00;11.50;;;;;13.09;71.51;100966.81;146623;604;46012;-80
2023/04/24 01:11:51;;;;;;;;;13.25;11.00;;;;;13.02;71.48;100962.13;146624;589;46010;-79
2023/04/24 01:14:55;;;;;;;;;11.25;10.25;;;;;12.85;71.59;100956.19;146620;575;46016;-85
2023/04/24 01:17:53;;;;;;;;;16.00;13.25;;;;;12.85;72.00;100964.88;146623;598;46010;-81
2023/04/24 01:20:49;;;;;;;;;13.50;11.75;;;;;12.81;71.88;100965.56;146619;598;46016;-80
2023/04/24 01:23:41;;;;;;;;;11.50;11.50;;;;;12.79;72.05;100972.41;146624;597;46012;-84
2023/04/24 01:26:33;;;;;;;;;13.50;11.25;;;;;12.84;72.18;100967.41;146619;581;46016;-87
2023/04/24 01:29:25;;;;;;;;;14.25;12.00;;;;;12.85;71.66;100959.66;146624;594;46020;-86
2023/04/24 01:32:29;;;;;;;;;14.25;12.50;;;;;12.85;71.41;100970.06;146618;604;46014;-87
2023/04/24 01:35:39;;;;;;;;;14.50;11.00;;;;;12.85;70.99;100964.00;146624;630;46011;-85
2023/04/24 01:38:35;;;;;;;;;11.75;11.75;;;;;12.84;71.43;100965.72;146619;638;46016;-83
2023/04/24 01:41:31;;;;;;;;;10.25;10.25;;;;;12.84;71.31;100963.09;146625;651;45013;-79
2023/04/24 01:44:29;;;;;;;;;13.50;13.00;;;;;12.83;71.22;100961.28;146621;585;46012;-86
2023/04/24 01:47:22;;;;;;;;;12.50;11.25;;;;;12.83;71.02;100961.28;146625;611;45020;-88
2023/04/24 01:50:16;;;;;;;;;8.50;8.50;;;;;12.85;70.75;100964.88;146621;574;46017;-86
2023/04/24 01:53:33;;;;;;;;;13.50;11.25;;;;;12.52;70.49;100900.88;146624;569;46020;-85
2023/04/24 01:56:29;;;;;;;;;13.75;11.75;;;;;12.86;70.97;100961.44;146618;565;46018;-84
2023/04/24 01:59:26;;;;;;;;;12.50;9.25;;;;;12.93;70.47;100957.44;146623;573;46010;-85
2023/04/24 02:02:23;;;;;;;;;11.75;7.50;;;;;12.99;69.90;100951.59;146621;612;46012;-84
2023/04/24 02:05:27;;;;;;;;;11.25;9.25;;;;;13.01;69.67;100950.84;146627;676;45012;-89
2023/04/24 02:08:24;;;;;;;;;8.50;8.25;;;;;13.00;69.72;100943.88;146622;573;46012;-83
2023/04/24 02:11:18;;;;;;;;;11.50;9.75;;;;;13.01;69.94;100949.94;146623;578;46021;-85
2023/04/24 02:14:14;;;;;;;;;12.00;10.25;;;;;13.03;69.95;100941.41;146620;600;47012;-86
2023/04/24 02:17:06;;;;;;;;;12.75;10.50;;;;;13.01;69.76;100940.44;146623;596;46020;-80
2023/04/24 02:19:58;;;;;;;;;12.25;10.00;;;;;12.94;69.46;100940.97;146620;595;45017;-81
2023/04/24 02:22:50;;;;;;;;;11.00;10.00;;;;;12.90;69.64;100947.75;146621;569;46010;-80
2023/04/24 02:25:44;;;;;;;;;13.50;11.50;;;;;12.85;70.31;100938.84;146619;569;46012;-80
2023/04/24 02:28:46;;;;;;;;;11.00;10.00;;;;;12.81;70.89;100936.94;146622;590;46020;-79
2023/04/24 02:31:39;;;;;;;;;10.00;9.50;;;;;12.70;71.24;100938.16;146619;582;46016;-80
2023/04/24 02:34:32;;;;;;;;;10.25;9.00;;;;;12.55;72.52;100929.63;146623;610;46010;-80
2023/04/24 02:37:32;;;;;;;;;10.25;10.25;;;;;12.41;73.14;100929.00;146619;629;46012;-80
2023/04/24 02:40:30;;;;;;;;;11.25;9.50;;;;;12.36;73.30;100931.38;146623;605;46010;-80
2023/04/24 02:43:34;;;;;;;;;13.50;11.75;;;;;12.39;73.35;100931.50;146617;611;46016;-79
2023/04/24 02:46:27;;;;;;;;;12.50;11.50;;;;;12.48;73.29;100929.34;146621;598;45020;-82
2023/04/24 02:49:36;;;;;;;;;10.00;10.00;;;;;12.45;72.53;100926.59;146623;591;45034;-82
2023/04/24 02:52:37;;;;;;;;;14.50;11.25;;;;;12.49;73.08;100938.03;146623;608;46010;-86
2023/04/24 02:55:29;;;;;;;;;13.50;12.00;;;;;12.46;72.77;100935.28;146617;606;46016;-84
2023/04/24 02:58:21;;;;;;;;;11.25;10.00;;;;;12.47;72.84;100932.78;146622;742;45021;-86
2023/04/24 03:01:13;;;;;;;;;10.75;10.75;;;;;12.53;72.76;100936.50;146617;576;46012;-82
2023/04/24 03:04:12;;;;;;;;;13.25;10.75;;;;;12.54;72.45;100930.47;146623;593;45021;-89
2023/04/24 03:07:05;;;;;;;;;13.25;10.00;;;;;12.54;72.18;100927.88;146618;635;46014;-87
2023/04/24 03:10:04;;;;;;;;;11.75;11.50;;;;;12.54;72.01;100931.34;146623;669;46020;-83
2023/04/24 03:13:02;;;;;;;;;12.25;10.00;;;;;12.53;72.15;100931.28;146619;571;46017;-82
2023/04/24 03:15:55;;;;;;;;;11.00;11.00;;;;;12.50;72.39;100923.34;146620;611;46020;-84
2023/04/24 03:18:49;;;;;;;;;12.00;11.25;;;;;12.46;72.52;100924.87;146618;608;46017;-83
2023/04/24 03:21:52;;;;;;;;;13.75;11.50;;;;;12.46;72.74;100933.59;146621;746;45020;-85
2023/04/24 03:24:45;;;;;;;;;13.75;12.25;;;;;12.49;71.83;100930.22;146618;673;46012;-80
2023/04/24 03:27:41;;;;;;;;;14.00;11.75;;;;;12.52;72.27;100925.16;146623;581;45021;-79
2023/04/24 03:30:33;;;;;;;;;14.50;13.50;;;;;12.58;71.91;100927.16;146621;565;46031;-79
2023/04/24 03:33:52;;;;;;;;;12.75;10.75;;;;;12.60;71.58;100928.16;146619;581;46021;-79
2023/04/24 03:36:47;;;;;;;;;12.00;11.00;;;;;12.59;72.23;100927.25;146618;594;46012;-79
2023/04/24 03:39:48;;;;;;;;;10.25;10.00;;;;;12.58;71.64;100928.06;146622;694;46020;-79
2023/04/24 03:42:43;;;;;;;;;12.25;11.75;;;;;12.59;72.16;100928.97;146617;597;46016;-80
2023/04/24 03:45:41;;;;;;;;;12.50;11.75;;;;;12.63;72.06;100931.78;146623;594;46010;-80
2023/04/24 03:48:46;;;;;;;;;13.50;12.75;;;;;12.65;72.10;100935.34;146620;591;45017;-78
2023/04/24 03:51:41;;;;;;;;;12.25;11.50;;;;;12.64;72.10;100930.06;146624;612;46020;-80
2023/04/24 03:55:07;;;;;;;;;;;;;;;;;;;;;
2023/04/24 03:58:02;;;;;;;;;11.50;10.25;;;;;12.70;72.06;100935.53;146624;582;45020;-86
2023/04/24 04:01:00;;;;;;;;;16.00;14.00;;;;;12.67;72.12;100936.28;146620;593;46014;-84
2023/04/24 04:03:53;;;;;;;;;15.75;13.25;;;;;12.65;72.31;100935.34;146622;564;46020;-84
2023/04/24 04:06:46;;;;;;;;;15.00;11.75;;;;;12.66;72.51;100942.31;146617;631;46016;-86
2023/04/24 04:09:44;;;;;;;;;14.50;12.75;;;;;12.68;72.85;100942.41;146623;636;45021;-86
2023/04/24 04:12:52;;;;;;;;;14.75;12.25;;;;;12.03;72.54;100829.31;146619;605;46014;-85
2023/04/24 04:15:46;;;;;;;;;15.50;11.00;;;;;12.64;72.89;100933.53;146622;565;47010;-82
2023/04/24 04:18:38;;;;;;;;;14.50;12.50;;;;;12.66;73.35;100936.22;146614;610;47012;-91
2023/04/24 04:21:36;;;;;;;;;12.00;11.00;;;;;12.67;73.62;100927.59;146624;609;45044;-88
2023/04/24 04:24:31;;;;;;;;;13.00;11.75;;;;;12.75;73.56;100934.06;146618;624;46016;-82
2023/04/24 04:27:25;;;;;;;;;19.25;13.75;;;;;12.85;73.94;100944.06;146622;573;45020;-80
2023/04/24 04:30:24;;;;;;;;;19.00;16.75;;;;;12.94;73.97;100944.47;146618;623;46016;-77
2023/04/24 04:33:19;;;;;;;;;21.50;19.00;;;;;13.10;74.23;100956.47;146620;643;46021;-78
2023/04/24 04:36:17;;;;;;;;;20.75;15.00;;;;;13.34;74.53;100953.19;146617;648;46016;-77
2023/04/24 04:39:15;;;;;;;;;14.75;14.50;;;;;13.64;74.97;100951.00;146623;565;45020;-78
2023/04/24 04:42:10;;;;;;;;;16.75;15.75;;;;;13.95;74.31;100960.09;146621;593;45017;-85
2023/04/24 04:45:09;;;;;;;;;14.75;14.00;;;;;14.18;72.42;100961.06;146621;579;46020;-84
2023/04/24 04:48:01;;;;;;;;;15.00;13.00;;;;;14.40;71.18;100954.97;146618;693;47012;-88
2023/04/24 04:51:10;;;;;;;;;17.50;16.50;;;;;14.60;71.27;100961.00;146622;577;46032;-82
2023/04/24 04:54:08;;;;;;;;;14.00;13.75;;;;;14.84;70.91;100966.28;146618;630;46920;-83
2023/04/24 04:57:03;;;;;;;;;18.50;17.50;;;;;15.12;69.99;100955.13;146621;710;46010;-82
2023/04/24 05:00:01;;;;;;;;;22.25;18.00;;;;;15.39;69.51;100963.06;146619;687;46016;-82
2023/04/24 05:02:53;;;;;;;;;22.25;19.00;;;;;15.62;68.45;100961.25;146620;587;46012;-79
2023/04/24 05:05:58;;;;;;;;;21.75;18.25;;;;;15.84;67.06;100968.13;146622;605;45016;-78
2023/04/24 05:09:09;;;;;;;;;15.25;15.00;;;;;16.06;66.20;100959.28;146621;743;46010;-84
2023/04/24 05:12:07;;;;;;;;;17.25;16.75;;;;;16.26;65.81;100957.28;146620;701;45035;-85
2023/04/24 05:14:59;;;;;;;;;24.25;20.50;;;;;16.45;65.50;100950.91;146623;570;45029;-85
2023/04/24 05:17:52;;;;;;;;;18.25;17.25;;;;;16.61;63.53;100948.81;146617;572;47012;-83
2023/04/24 05:20:46;;;;;;;;;20.75;18.50;;;;;16.72;62.93;100943.00;146624;581;45020;-81
2023/04/24 05:24:01;;;;;;;;;20.25;19.00;;;;;16.81;63.22;100951.16;146616;596;46016;-81
2023/04/24 05:26:50;;;;;;;;;20.00;18.75;;;;;16.93;62.88;100948.91;146705;564;46015;-80
2023/04/24 05:29:45;;;;;;;;;16.50;14.75;;;;;17.06;62.63;100963.25;146613;598;46017;-79
2023/04/24 05:32:47;;;;;;;;;17.25;17.00;;;;;17.18;62.60;100952.22;146613;624;46020;-81
2023/04/24 05:36:15;;;;;;;;;;;;;;;;;;;;;
2023/04/24 05:39:16;;;;;;;;;14.75;13.00;;;;;17.51;62.83;100954.91;146614;589;46020;-83
2023/04/24 05:42:09;;;;;;;;;10.75;10.00;;;;;17.71;63.11;100964.16;146610;581;47013;-82
2023/04/24 05:45:21;;;;;;;;;;;;;;;;;;;;;
2023/04/24 05:48:17;;;;;;;;;21.00;17.00;;;;;18.10;60.92;100960.81;146611;575;46915;-83
2023/04/24 05:51:33;;;;;;;;;14.25;14.00;;;;;18.19;61.67;100945.28;146614;582;46020;-83
2023/04/24 05:54:33;;;;;;;;;17.50;14.00;;;;;18.26;60.22;100945.44;146612;609;46012;-83
2023/04/24 05:57:39;;;;;;;;;;;;;;;;;;;;;
2023/04/24 06:00:43;;;;;;;;;16.00;15.00;;;;;18.31;61.49;100946.41;146611;580;46016;-82
2023/04/24 06:03:44;;;;;;;;;16.75;16.25;;;;;18.45;61.01;100951.13;146614;601;46020;-82
2023/04/24 06:06:42;;;;;;;;;18.00;16.75;;;;;18.62;62.04;100956.75;146608;574;47012;-82
2023/04/24 06:09:39;;;;;;;;;17.25;16.50;;;;;18.78;61.30;100955.37;146614;592;46010;-83
2023/04/24 06:12:36;;;;;;;;;19.50;15.75;;;;;18.91;60.43;100949.53;146608;614;46017;-83
2023/04/24 06:15:40;;;;;;;;;16.25;15.50;;;;;19.03;59.36;100953.25;146609;608;46020;-82
2023/04/24 06:18:46;;;;;;;;;16.00;12.50;;;;;19.07;59.81;100956.00;146610;594;46016;-82
2023/04/24 06:21:45;;;;;;;;;16.50;14.75;;;;;19.17;59.28;100959.69;146615;648;46020;-82
2023/04/24 06:24:49;;;;;;;;;14.00;13.50;;;;;19.08;59.73;100920.97;146609;633;47012;-83
2023/04/24 06:28:03;;;;;;;;;14.50;14.50;;;;;19.31;59.37;100942.44;146615;576;47010;-84
2023/04/24 06:31:14;;;;;;;;;11.00;10.00;;;;;19.41;59.29;100950.50;146612;578;46016;-83
2023/04/24 06:34:33;;;;;;;;;13.75;12.00;;;;;19.27;59.46;100932.72;146612;637;46010;-83
2023/04/24 06:37:26;;;;;;;;;11.00;11.00;;;;;19.38;59.15;100949.59;146611;619;46012;-87
2023/04/24 06:40:33;;;;;;;;;;;;;;;;;;;;;
2023/04/24 06:43:25;;;;;;;;;11.50;11.00;;;;;19.21;59.42;100948.38;146611;615;46012;-89
2023/04/24 06:46:29;;;;;;;;;15.25;13.50;;;;;19.13;59.67;100957.88;146614;631;46010;-87
2023/04/24 06:49:31;;;;;;;;;13.25;13.00;;;;;19.11;59.15;100951.69;146610;611;46917;-88
2023/04/24 06:52:58;;;;;;;;;;;;;;;;;;;;;
2023/04/24 06:56:00;;;;;;;;;14.00;13.00;;;;;19.12;57.65;100954.34;146619;573;46016;-84
2023/04/24 06:58:40;;;;;;;;;11.50;11.00;;;;;19.15;59.17;100953.50;146705;580;46023;-87
2023/04/24 07:01:38;;;;;;;;;13.75;12.75;;;;;19.20;59.72;100951.87;146617;583;46012;-87
2023/04/24 07:04:38;;;;;;;;;16.75;13.00;;;;;19.26;59.19;100957.25;146621;578;47020;-86
2023/04/24 07:07:37;;;;;;;;;15.25;14.25;;;;;19.28;59.67;100965.16;146616;636;46014;-87
2023/04/24 07:10:35;;;;;;;;;10.75;10.00;;;;;19.27;59.10;100963.38;146620;564;46020;-83
2023/04/24 07:13:54;;;;;;;;;13.00;11.25;;;;;19.33;59.98;100960.88;146615;625;47013;-86
2023/04/24 07:16:53;;;;;;;;;13.50;11.25;;;;;19.42;59.65;100962.81;146621;686;46020;-86
2023/04/24 07:20:01;;;;;;;;;21.75;19.00;;;;;19.52;60.12;100956.84;146616;645;46012;-85
2023/04/24 07:22:56;;;;;;;;;17.75;15.00;;;;;19.70;59.70;100964.22;146621;579;46020;-88
2023/04/24 07:26:00;;;;;;;;;42.75;33.50;;;;;19.89;58.82;100960.19;146618;600;46012;-85
2023/04/24 07:28:53;;;;;;;;;34.50;29.75;;;;;20.02;58.65;100946.34;146620;754;46020;-87
2023/04/24 07:31:56;;;;;;;;;44.00;34.00;;;;;20.17;57.63;100949.22;146617;566;46914;-86
2023/04/24 07:35:16;;;;;;;;;;;;;;;;;;;;;
2023/04/24 07:38:27;;;;;;;;;37.00;30.75;;;;;20.28;58.73;100937.12;146617;600;46012;-86
2023/04/24 07:41:33;;;;;;;;;41.00;33.75;;;;;20.35;57.08;100921.41;146621;578;46020;-85
2023/04/24 07:44:31;;;;;;;;;39.25;30.00;;;;;20.43;57.02;100941.72;146614;639;46017;-84
2023/04/24 07:47:37;;;;;;;;;;;;;;;;;;;;;
2023/04/24 07:50:42;;;;;;;;;35.50;30.00;;;;;20.53;59.53;100933.13;146616;564;47014;-86
2023/04/24 07:53:49;;;;;;;;;40.00;32.25;;;;;20.73;58.55;100935.13;146621;599;46020;-87
2023/04/24 07:57:11;;;;;;;;;44.25;35.00;;;;;20.96;57.18;100931.03;146616;616;46018;-85
2023/04/24 08:00:03;;;;;;;;;23.00;21.50;;;;;21.07;58.42;100931.16;146613;572;46021;-87
2023/04/24 08:03:18;;;;;;;;;17.50;17.00;;;;;21.20;57.14;100942.75;146609;569;46016;-88
2023/04/24 08:06:16;;;;;;;;;17.50;16.00;;;;;21.22;56.77;100939.25;146609;569;47010;-89
2023/04/24 08:09:13;;;;;;;;;13.50;13.25;;;;;21.21;57.52;100936.59;146608;733;46012;-85
2023/04/24 08:12:06;;;;;;;;;15.00;14.00;;;;;21.28;57.20;100940.16;146613;606;48011;-90
2023/04/24 08:15:04;;;;;;;;;23.75;21.00;;;;;21.39;54.83;100934.19;146611;607;47012;-83
2023/04/24 08:18:02;;;;;;;;;23.75;21.25;;;;;21.42;55.68;100941.25;146613;679;47010;-84
2023/04/24 08:21:04;;;;;;;;;28.75;24.50;;;;;21.38;55.17;100936.81;146611;607;46914;-85
2023/04/24 08:24:07;;;;;;;;;27.00;24.50;;;;;21.34;55.84;100943.78;146612;622;46020;-86
2023/04/24 08:27:02;;;;;;;;;23.50;19.00;;;;;21.32;54.45;100934.09;146611;597;46029;-88
2023/04/24 08:30:01;;;;;;;;;20.00;19.25;;;;;21.10;55.75;100936.47;146614;626;46010;-89
2023/04/24 08:33:10;;;;;;;;;22.00;18.75;;;;;20.96;56.37;100928.37;146610;564;46016;-84
2023/04/24 08:36:17;;;;;;;;;23.00;20.00;;;;;20.94;56.99;100930.12;146614;569;46020;-84
2023/04/24 08:39:13;;;;;;;;;19.00;18.50;;;;;20.93;56.22;100930.09;146609;606;46016;-81
2023/04/24 08:42:19;;;;;;;;;20.25;18.75;;;;;20.84;56.97;100922.09;146612;627;47010;-83
2023/04/24 08:45:12;;;;;;;;;23.00;19.75;;;;;20.73;55.64;100927.22;146611;661;46016;-84
2023/04/24 08:48:31;;;;;;;;;16.00;15.50;;;;;20.48;56.97;100923.34;146613;613;47010;-84
2023/04/24 08:51:26;;;;;;;;;17.50;16.00;;;;;20.29;57.05;100920.44;146609;564;46017;-87
2023/04/24 08:54:33;;;;;;;;;19.75;16.75;;;;;20.24;57.29;100919.50;146610;584;47010;-82
2023/04/24 08:57:40;;;;;;;;;18.50;17.25;;;;;20.23;57.28;100916.84;146612;603;46013;-88
2023/04/24 09:00:49;;;;;;;;;18.25;15.75;;;;;20.15;57.42;100915.84;146611;600;46020;-87
2023/04/24 09:03:47;;;;;;;;;15.25;14.25;;;;;20.09;56.79;100913.97;146609;605;46915;-85
2023/04/24 09:06:44;;;;;;;;;16.75;15.50;;;;;20.10;56.65;100910.50;146614;657;46020;-89
2023/04/24 09:09:40;;;;;;;;;16.25;15.75;;;;;20.25;57.71;100909.88;146602;628;48914;-87
2023/04/24 09:12:50;;;;;;;;;18.25;17.25;;;;;20.44;56.34;100905.75;146616;640;46010;-86
2023/04/24 09:15:48;;;;;;;;;18.75;16.00;;;;;20.67;54.75;100908.72;146608;563;46012;-87
2023/04/24 09:19:03;;;;;;;;;;;;;;;;;;;;;
2023/04/24 09:22:08;;;;;;;;;16.00;16.00;;;;;20.96;52.96;100904.66;146608;579;46912;-88
2023/04/24 09:25:18;;;;;;;;;21.50;17.25;;;;;20.91;53.54;100898.47;146614;565;46010;-86
2023/04/24 09:28:21;;;;;;;;;18.25;17.25;;;;;20.76;51.49;100891.25;146611;661;46014;-88
2023/04/24 09:31:21;;;;;;;;;15.00;13.75;;;;;20.74;52.12;100894.72;146610;675;46020;-86
2023/04/24 09:34:33;;;;;;;;;17.25;15.25;;;;;20.83;53.64;100891.34;146611;670;46012;-87
2023/04/24 09:37:43;;;;;;;;;18.50;15.50;;;;;21.05;51.63;100897.75;146617;578;46029;-85
2023/04/24 09:40:43;;;;;;;;;17.00;15.00;;;;;21.22;52.53;100888.28;146611;565;46037;-85
2023/04/24 09:43:41;;;;;;;;;17.00;13.33;;;;;21.38;52.50;100892.84;146615;584;46010;-85
2023/04/24 09:46:56;;;;;;;;;;;;;;;;;;;;;
2023/04/24 09:49:55;;;;;;;;;14.50;12.75;;;;;21.29;49.55;100887.44;146613;606;46021;-88
2023/04/24 09:53:02;;;;;;;;;15.25;15.25;;;;;21.05;50.39;100879.28;146611;724;46014;-84
2023/04/24 09:56:20;;;;;;;;;14.50;13.00;;;;;20.78;51.33;100854.41;146614;564;46010;-88
2023/04/24 09:59:18;;;;;;;;;20.75;17.25;;;;;20.87;52.31;100869.41;146634;565;45016;-84
2023/04/24 10:02:37;;;;;;;;;21.50;17.75;;;;;21.01;54.67;100870.47;146634;580;45020;-83
2023/04/24 10:05:52;;;;;;;;;17.00;16.25;;;;;21.14;51.50;100869.72;146624;598;45916;-87
2023/04/24 10:09:07;;;;;;;;;19.25;18.00;;;;;20.53;51.59;100763.66;146635;656;45010;-85
2023/04/24 10:12:12;;;;;;;;;20.50;18.50;;;;;21.15;51.32;100863.59;146634;579;45915;-87
2023/04/24 10:15:21;;;;;;;;;21.25;20.50;;;;;21.32;52.96;100863.75;146635;572;46010;-85
2023/04/24 10:18:42;;;;;;;;;18.50;17.00;;;;;21.62;51.08;100857.91;146632;583;45032;-85
2023/04/24 10:21:47;;;;;;;;;;;;;;;;;;;;;
2023/04/24 10:25:01;;;;;;;;;18.00;17.00;;;;;21.18;49.35;100710.69;146634;657;46012;-88
2023/04/24 10:28:06;;;;;;;;;19.75;15.75;;;;;22.11;49.47;100850.31;146634;566;45020;-85
2023/04/24 10:31:06;;;;;;;;;18.50;18.00;;;;;22.19;48.76;100854.81;146631;570;47016;-85
2023/04/24 10:34:12;;;;;;;;;18.00;15.50;;;;;22.16;50.07;100846.84;146633;599;46021;-85
2023/04/24 10:37:09;;;;;;;;;17.75;15.75;;;;;22.20;46.41;100841.59;146633;609;46012;-90
2023/04/24 10:40:01;;;;;;;;;17.25;17.00;;;;;22.12;45.66;100841.53;146637;665;45021;-90
2023/04/24 10:43:07;;;;;;;;;19.00;17.50;;;;;22.01;46.24;100843.22;146632;573;45016;-86
2023/04/24 10:46:40;;;;;;;;;15.25;14.75;;;;;21.82;45.40;100846.59;146633;600;45010;-82
2023/04/24 10:49:38;;;;;;;;;15.00;11.25;;;;;21.67;45.65;100839.44;146631;722;46016;-83
2023/04/24 10:52:56;;;;;;;;;13.25;12.25;;;;;21.71;45.59;100830.69;146638;569;45010;-82
2023/04/24 10:56:01;;;;;;;;;12.00;12.00;;;;;21.71;44.18;100833.31;146635;707;46013;-84
2023/04/24 10:59:09;;;;;;;;;12.00;10.67;;;;;21.78;46.80;100827.22;146620;663;46012;-90
2023/04/24 11:02:01;;;;;;;;;9.67;9.00;;;;;21.83;45.00;100832.53;146614;569;46017;-83
2023/04/24 11:05:26;;;;;;;;;12.67;10.00;;;;;21.05;47.52;100657.84;146628;581;46021;-84
2023/04/24 11:08:45;;;;;;;;;8.00;8.00;;;;;21.60;48.68;100727.69;146617;718;47016;-81
2023/04/24 11:11:43;;;;;;;;;10.00;9.00;;;;;22.25;44.20;100829.31;146626;571;46032;-85
2023/04/24 11:15:22;;;;;;;;;13.00;10.67;;;;;21.29;46.18;100651.84;146624;569;46012;-83
2023/04/24 11:18:39;;;;;;;;;;;;;;;;;;;;;
2023/04/24 11:22:40;;;;;;;;;11.00;10.00;;;;;21.20;44.12;100640.37;146615;618;46012;-87
2023/04/24 11:25:51;;;;;;;;;11.00;11.00;;;;;22.12;46.59;100801.03;146619;613;46020;-83
2023/04/24 11:29:02;;;;;;;;;8.00;8.00;;;;;22.08;44.06;100799.22;146617;650;46012;-83
2023/04/24 11:31:54;;;;;;;;;8.25;8.25;;;;;22.04;44.59;100805.38;146626;661;46020;-80
2023/04/24 11:35:11;;;;;;;;;10.00;10.00;;;;;21.96;46.11;100805.31;146621;570;47014;-83
2023/04/24 11:38:32;;;;;;;;;11.00;10.25;;;;;22.05;45.04;100800.09;146617;591;46022;-82
2023/04/24 11:42:29;;;;;;;;;9.00;9.00;;;;;22.28;44.38;100796.75;146703;566;47012;-83
2023/04/24 11:45:27;;;;;;;;;10.00;10.00;;;;;22.51;45.78;100796.81;146617;628;46017;-82
2023/04/24 11:48:27;;;;;;;;;10.33;9.33;;;;;22.65;42.34;100796.84;146626;607;46010;-84
2023/04/24 11:51:25;;;;;;;;;10.00;9.67;;;;;22.71;42.39;100795.12;146618;608;46012;-82
2023/04/24 11:54:24;;;;;;;;;9.00;8.00;;;;;22.80;41.61;100794.25;146626;622;46010;-83
2023/04/24 11:57:23;;;;;;;;;9.25;9.00;;;;;22.97;43.18;100784.62;146618;659;46016;-82
2023/04/24 12:00:46;;;;;;;;;;;;;;;;;;;;;
2023/04/24 12:03:42;;;;;;;;;6.33;6.33;;;;;23.31;41.00;100774.09;146620;621;46016;-81
2023/04/24 12:06:44;;;;;;;;;6.00;6.00;;;;;23.39;37.98;100772.28;146620;594;46021;-83
2023/04/24 12:09:52;;;;;;;;;9.33;8.33;;;;;23.29;37.42;100766.13;146620;586;46017;-84
2023/04/24 12:12:56;;;;;;;;;9.67;8.67;;;;;23.09;39.92;100757.31;146623;563;46010;-84
2023/04/24 12:15:50;;;;;;;;;7.33;7.00;;;;;22.95;40.70;100749.37;146619;581;46016;-83
2023/04/24 12:19:07;;;;;;;;;;;;;;;;;;;;;
2023/04/24 12:22:18;;;;;;;;;12.33;11.00;;;;;22.95;39.93;100740.56;146618;566;46018;-83
2023/04/24 12:25:16;;;;;;;;;9.67;8.67;;;;;23.04;41.46;100737.91;146623;589;46020;-79
2023/04/24 12:28:38;;;;;;;;;7.00;6.67;;;;;23.29;41.28;100729.09;146621;576;46012;-80
2023/04/24 12:31:48;;;;;;;;;10.00;8.50;;;;;23.43;39.15;100723.81;146620;569;46020;-75
2023/04/24 12:34:53;;;;;;;;;8.33;8.00;;;;;23.51;39.67;100714.06;146617;569;46016;-75
2023/04/24 12:37:52;;;;;;;;;7.00;7.00;;;;;23.58;38.03;100708.75;146624;573;46011;-73
2023/04/24 12:40:50;;;;;;;;;7.00;7.00;;;;;23.13;37.01;100607.44;146621;577;46014;-75
2023/04/24 12:44:15;;;;;;;;;8.00;7.00;;;;;23.66;40.70;100685.81;146623;570;46020;-75
2023/04/24 12:47:15;;;;;;;;;8.00;8.00;;;;;23.57;36.20;100683.19;146617;612;47016;-76
2023/04/24 12:50:19;;;;;;;;;9.00;7.33;;;;;23.52;37.79;100685.88;146626;571;45020;-76
2023/04/24 12:53:17;;;;;;;;;8.00;7.33;;;;;23.56;38.84;100677.00;146621;577;46017;-76
2023/04/24 12:56:18;;;;;;;;;9.50;8.00;;;;;23.57;38.66;100664.66;146625;662;45020;-77
2023/04/24 12:59:28;;;;;;;;;8.25;7.00;;;;;23.57;40.20;100669.94;146618;569;46013;-76
2023/04/24 13:02:38;;;;;;;;;7.67;7.33;;;;;23.59;36.56;100662.91;146625;587;46014;-83
2023/04/24 13:05:32;;;;;;;;;8.67;7.33;;;;;23.60;39.58;100660.22;146621;607;46016;-84
2023/04/24 13:08:26;;;;;;;;;9.00;8.00;;;;;23.61;39.02;100661.09;146622;588;46021;-84
2023/04/24 13:11:32;;;;;;;;;7.33;7.33;;;;;23.61;39.75;100653.16;146617;581;46037;-84
2023/04/24 13:14:39;;;;;;;;;9.00;8.33;;;;;23.60;39.81;100652.28;146623;565;46021;-84
2023/04/24 13:17:33;;;;;;;;;16.50;15.00;;;;;23.55;41.69;100642.59;146620;572;46014;-85
2023/04/24 13:20:26;;;;;;;;;12.50;10.50;;;;;23.42;41.53;100641.75;146623;650;46010;-87
2023/04/24 13:23:34;;;;;;;;;9.75;9.25;;;;;23.28;44.15;100641.81;146618;622;46016;-83
2023/04/24 13:26:27;;;;;;;;;9.33;8.67;;;;;23.09;42.26;100640.97;146626;663;46010;-82
2023/04/24 13:29:28;;;;;;;;;7.25;7.25;;;;;22.87;44.52;100639.19;146622;572;46017;-84
2023/04/24 13:32:27;;;;;;;;;7.67;6.00;;;;;22.55;45.12;100642.69;146625;645;46020;-83
2023/04/24 13:35:38;;;;;;;;;8.67;7.33;;;;;22.32;46.29;100640.91;146617;666;46016;-85
2023/04/24 13:38:31;;;;;;;;;11.00;10.00;;;;;22.20;46.74;100646.16;146625;591;46020;-88
2023/04/24 13:41:28;;;;;;;;;7.67;7.33;;;;;22.09;48.19;100639.94;146618;564;46035;-81
2023/04/24 13:44:24;;;;;;;;;7.00;7.00;;;;;22.00;48.85;100647.84;146620;584;46021;-80
2023/04/24 13:47:24;;;;;;;;;12.00;11.00;;;;;21.93;49.40;100636.34;146616;642;46016;-84
2023/04/24 13:50:27;;;;;;;;;9.00;7.00;;;;;21.83;49.12;100634.56;146621;574;46020;-88
2023/04/24 13:53:21;;;;;;;;;11.33;9.00;;;;;21.79;47.61;100633.66;146622;668;47012;-81
2023/04/24 13:56:21;;;;;;;;;8.00;7.67;;;;;21.80;51.21;100624.88;146623;629;46020;-81
2023/04/24 13:59:26;;;;;;;;;8.67;8.67;;;;;21.81;50.77;100631.06;146619;588;46013;-81
2023/04/24 14:02:18;;;;;;;;;11.67;9.00;;;;;21.78;51.60;100624.00;146623;617;46022;-78
2023/04/24 14:05:26;;;;;;;;;8.00;8.00;;;;;21.74;51.58;100622.19;146621;674;46012;-81
2023/04/24 14:08:21;;;;;;;;;10.67;9.00;;;;;21.51;52.77;100618.59;146622;584;47031;-80
2023/04/24 14:11:19;;;;;;;;;9.33;9.33;;;;;21.26;51.83;100617.56;146617;628;47025;-81
2023/04/24 14:14:29;;;;;;;;;7.33;6.00;;;;;21.05;53.82;100608.62;146622;597;46021;-82
2023/04/24 14:17:23;;;;;;;;;10.25;9.00;;;;;20.90;53.38;100619.06;146618;625;47913;-79